Aviation Digital Data Service (ADDS)

Output produced by METARs form (0340 UTC 24 February 2017)
found at http://www.aviationweather.gov/adds/metars/
 
METAR text: KAMW 240312Z AUTO 06015G24KT 4SM BR OVC009 04/04 A2962 RMK AO2 CIG 007V012 T00390039
Conditions at: KAMW (AMES , IA, US) observed 0312 UTC 24 February 2017
Temperature: 3.9°C (39°F)
Dewpoint: 3.9°C (39°F) [RH = 100%]
Pressure (altimeter): 29.62 inches Hg (1003.1 mb)
Winds: from the ENE (60 degrees) at 17 MPH (15 knots; 7.8 m/s)
gusting to 28 MPH (24 knots; 12.5 m/s)
Visibility: 4 miles (6 km)
Ceiling: 900 feet AGL
Clouds: overcast cloud deck at 900 feet AGL
Weather: BR  (mist)